createdAt,value
2017-12-10T00:01:26.117Z,2.45
2017-12-10T00:03:52.334Z,2.40
2017-12-10T00:06:18.700Z,3.22
2017-12-10T00:08:45.092Z,2.95
2017-12-10T00:11:11.242Z,2.47
2017-12-10T00:13:37.507Z,2.35
2017-12-10T00:16:03.870Z,3.42
2017-12-10T00:18:30.188Z,2.85
2017-12-10T00:20:56.356Z,2.80
2017-12-10T00:23:22.651Z,3.20
2017-12-10T00:25:49.092Z,2.92
2017-12-10T00:28:15.388Z,3.05
2017-12-10T00:30:42.547Z,2.65
2017-12-10T00:33:08.771Z,3.00
2017-12-10T00:35:35.272Z,2.92
2017-12-10T00:38:01.553Z,2.75
2017-12-10T00:40:27.853Z,2.95
2017-12-10T00:42:54.182Z,3.15
2017-12-10T00:45:20.538Z,3.00
2017-12-10T00:47:46.764Z,2.58
2017-12-10T00:50:12.966Z,3.05
2017-12-10T00:52:39.298Z,2.85
2017-12-10T00:55:05.601Z,2.47
2017-12-10T00:57:31.986Z,2.47
2017-12-10T00:59:58.164Z,2.75
2017-12-10T01:02:24.325Z,2.90
2017-12-10T01:04:50.542Z,2.12
2017-12-10T01:07:16.764Z,2.60
2017-12-10T01:09:43.225Z,2.45
2017-12-10T01:12:09.535Z,2.12
2017-12-10T01:14:35.843Z,2.40
2017-12-10T01:17:02.116Z,2.35
2017-12-10T01:19:28.285Z,2.35
2017-12-10T01:21:54.543Z,2.37
2017-12-10T01:24:20.846Z,2.80
2017-12-10T01:26:47.141Z,2.87
2017-12-10T01:29:13.353Z,2.70
2017-12-10T01:31:39.511Z,2.58
2017-12-10T01:34:05.872Z,2.87
2017-12-10T01:36:31.984Z,2.92
2017-12-10T01:38:58.073Z,2.65
2017-12-10T01:41:24.287Z,2.42
2017-12-10T01:43:50.413Z,2.92
2017-12-10T01:46:16.527Z,2.45
2017-12-10T01:48:42.643Z,2.53
2017-12-10T01:51:08.793Z,2.08
2017-12-10T01:53:35.099Z,3.37
2017-12-10T01:56:01.245Z,2.50
2017-12-10T01:58:27.337Z,2.53
2017-12-10T02:00:53.489Z,2.72
2017-12-10T02:03:19.547Z,2.33
2017-12-10T02:05:45.807Z,2.35
2017-12-10T02:08:11.964Z,2.00
2017-12-10T02:10:38.058Z,2.30
2017-12-10T02:13:04.338Z,2.10
2017-12-10T02:15:30.524Z,2.28
2017-12-10T02:17:56.725Z,2.15
2017-12-10T02:20:22.898Z,2.22
2017-12-10T02:22:48.970Z,2.42
2017-12-10T02:25:15.132Z,2.00
2017-12-10T02:27:41.300Z,2.12
2017-12-10T02:30:07.394Z,2.00
2017-12-10T02:32:33.522Z,2.45
2017-12-10T02:34:59.646Z,1.80
2017-12-10T02:37:25.786Z,1.92
2017-12-10T02:39:51.976Z,1.95
2017-12-10T02:42:18.137Z,2.00
2017-12-10T02:44:44.377Z,1.67
2017-12-10T02:47:10.528Z,1.67
2017-12-10T02:49:36.616Z,2.50
2017-12-10T02:52:02.743Z,1.75
2017-12-10T02:54:28.879Z,1.85
2017-12-10T02:56:55.181Z,1.90
2017-12-10T02:59:21.378Z,1.80
2017-12-10T03:01:47.472Z,2.33
2017-12-10T03:04:13.984Z,2.25
2017-12-10T03:06:40.218Z,2.20
2017-12-10T03:09:06.691Z,2.40
2017-12-10T03:11:32.871Z,2.05
2017-12-10T03:13:59.005Z,1.52
2017-12-10T03:16:25.229Z,1.70
2017-12-10T03:18:51.345Z,2.10
2017-12-10T03:21:17.608Z,2.20
2017-12-10T03:23:43.759Z,1.90
2017-12-10T03:26:09.939Z,3.12
2017-12-10T03:28:36.062Z,2.95
2017-12-10T03:31:02.495Z,3.85
2017-12-10T03:33:28.678Z,3.35
2017-12-10T03:35:54.800Z,3.65
2017-12-10T03:38:20.928Z,3.22
2017-12-10T03:40:47.058Z,3.83
2017-12-10T03:43:13.173Z,3.28
2017-12-10T03:45:39.414Z,3.12
2017-12-10T03:48:05.962Z,3.58
2017-12-10T03:50:32.517Z,3.53
2017-12-10T03:52:58.685Z,3.53
2017-12-10T03:55:24.826Z,3.10
2017-12-10T03:57:51.005Z,3.12
2017-12-10T04:00:17.197Z,3.25
2017-12-10T04:02:43.339Z,2.60
2017-12-10T04:05:09.552Z,2.70
2017-12-10T04:07:35.617Z,2.62
2017-12-10T04:10:01.760Z,2.30
2017-12-10T04:12:28.893Z,2.75
2017-12-10T04:14:55.052Z,2.50
2017-12-10T04:17:21.205Z,2.45
2017-12-10T04:19:47.346Z,2.65
2017-12-10T04:22:13.471Z,3.17
2017-12-10T04:24:39.613Z,2.15
2017-12-10T04:27:05.921Z,2.65
2017-12-10T04:29:32.061Z,2.78
2017-12-10T04:31:58.202Z,3.75
2017-12-10T04:34:24.311Z,3.67
2017-12-10T04:36:50.409Z,3.35
2017-12-10T04:39:16.433Z,3.25
2017-12-10T04:41:43.471Z,3.08
2017-12-10T04:44:09.790Z,2.85
2017-12-10T04:46:35.917Z,2.75
2017-12-10T04:49:02.079Z,3.00
2017-12-10T04:51:28.191Z,2.08
2017-12-10T04:53:54.303Z,2.08
2017-12-10T04:56:20.449Z,2.30
2017-12-10T04:58:47.397Z,2.05
2017-12-10T05:01:13.593Z,2.20
2017-12-10T05:03:39.708Z,2.37
2017-12-10T05:06:05.984Z,2.90
2017-12-10T05:08:32.084Z,2.10
2017-12-10T05:10:58.236Z,2.40
2017-12-10T05:13:24.526Z,1.80
2017-12-10T05:15:50.718Z,1.45
2017-12-10T05:18:17.130Z,1.20
2017-12-10T05:20:43.199Z,1.17
2017-12-10T05:23:09.420Z,1.90
2017-12-10T05:25:35.508Z,1.62
2017-12-10T05:28:01.752Z,1.45
2017-12-10T05:30:27.872Z,1.60
2017-12-10T05:32:54.010Z,1.60
2017-12-10T05:35:20.156Z,1.55
2017-12-10T05:37:46.354Z,1.95
2017-12-10T05:40:12.544Z,2.42
2017-12-10T05:42:38.792Z,2.85
2017-12-10T05:45:04.939Z,2.30
2017-12-10T05:47:30.994Z,2.40
2017-12-10T05:49:57.091Z,3.33
2017-12-10T05:52:23.282Z,2.78
2017-12-10T05:54:49.463Z,2.55
2017-12-10T05:57:15.551Z,2.37
2017-12-10T05:59:41.681Z,2.55
2017-12-10T06:02:08.239Z,2.17
2017-12-10T06:04:34.345Z,2.33
2017-12-10T06:07:00.539Z,2.40
2017-12-10T06:09:26.647Z,2.30
2017-12-10T06:11:53.555Z,2.60
2017-12-10T06:14:19.640Z,3.17
2017-12-10T06:16:45.823Z,2.67
2017-12-10T06:19:12.151Z,2.85
2017-12-10T06:21:38.413Z,2.05
2017-12-10T06:24:04.581Z,2.80
2017-12-10T06:26:31.469Z,3.20
2017-12-10T06:28:57.558Z,3.28
2017-12-10T06:31:24.109Z,3.12
2017-12-10T06:33:50.207Z,2.85
2017-12-10T06:36:16.421Z,3.15
2017-12-10T06:38:42.600Z,3.35
2017-12-10T06:41:08.810Z,5.47
2017-12-10T06:43:37.052Z,4.90
2017-12-10T06:46:03.170Z,4.10
2017-12-10T06:48:29.264Z,4.57
2017-12-10T06:50:55.364Z,5.68
2017-12-10T06:53:21.606Z,4.72
2017-12-10T06:55:47.827Z,3.62
2017-12-10T06:58:14.050Z,3.60
2017-12-10T07:00:40.231Z,3.55
2017-12-10T07:03:06.332Z,3.55
2017-12-10T07:05:32.725Z,3.42
2017-12-10T07:07:58.997Z,3.00
2017-12-10T07:10:25.391Z,3.08
2017-12-10T07:12:51.529Z,3.60
2017-12-10T07:15:17.819Z,3.10
2017-12-10T07:17:44.884Z,3.10
2017-12-10T07:20:11.116Z,3.30
2017-12-10T07:22:37.734Z,3.00
2017-12-10T07:25:04.940Z,3.00
2017-12-10T07:27:31.138Z,3.00
2017-12-10T07:29:57.247Z,3.35
2017-12-10T07:32:23.435Z,3.05
2017-12-10T07:34:49.672Z,3.17
2017-12-10T07:37:16.239Z,3.53
2017-12-10T07:39:42.441Z,3.50
2017-12-10T07:42:08.817Z,3.67
2017-12-10T07:44:34.907Z,3.03
2017-12-10T07:47:01.051Z,3.67
2017-12-10T07:49:27.673Z,3.05
2017-12-10T07:51:53.776Z,3.20
2017-12-10T07:54:19.944Z,3.40
2017-12-10T07:56:46.012Z,2.58
2017-12-10T07:59:12.135Z,3.30
2017-12-10T08:01:38.607Z,3.45
2017-12-10T08:04:05.252Z,3.65
2017-12-10T08:06:31.966Z,3.83
2017-12-10T08:08:59.797Z,5.32
2017-12-10T08:11:26.426Z,7.18
2017-12-10T08:13:52.987Z,4.70
2017-12-10T08:16:19.551Z,4.10
2017-12-10T08:18:46.162Z,2.35
2017-12-10T08:21:12.254Z,2.85
2017-12-10T08:23:38.418Z,3.37
2017-12-10T08:26:04.707Z,2.83
2017-12-10T08:28:31.290Z,1.95
2017-12-10T08:30:57.439Z,3.08
2017-12-10T08:33:25.109Z,2.72
2017-12-10T08:35:51.272Z,2.42
2017-12-10T08:38:17.696Z,1.95
2017-12-10T08:40:46.431Z,2.40
2017-12-10T08:43:12.828Z,2.62
2017-12-10T08:45:39.414Z,2.00
2017-12-10T08:48:05.949Z,1.90
2017-12-10T08:50:32.553Z,2.80
2017-12-10T08:52:59.458Z,3.00
2017-12-10T08:55:26.047Z,1.87
2017-12-10T08:57:52.442Z,2.65
2017-12-10T09:00:19.115Z,1.73
2017-12-10T09:02:45.867Z,1.92
2017-12-10T09:05:12.682Z,1.30
2017-12-10T09:07:39.078Z,1.50
2017-12-10T09:10:05.567Z,1.33
2017-12-10T09:12:31.843Z,1.70
2017-12-10T09:14:58.467Z,1.87
2017-12-10T09:17:24.811Z,1.77
2017-12-10T09:19:51.383Z,1.75
2017-12-10T09:22:17.915Z,1.77
2017-12-10T09:24:44.419Z,1.80
2017-12-10T09:27:10.983Z,1.90
2017-12-10T09:29:37.405Z,1.60
2017-12-10T09:32:04.122Z,1.90
2017-12-10T09:34:30.500Z,1.80
2017-12-10T09:36:56.914Z,1.60
2017-12-10T09:39:23.436Z,1.62
2017-12-10T09:41:49.942Z,1.80
2017-12-10T09:44:16.351Z,2.05
2017-12-10T09:46:42.693Z,2.10
2017-12-10T09:49:09.364Z,1.62
2017-12-10T09:51:36.654Z,1.75
2017-12-10T09:54:03.209Z,1.70
2017-12-10T09:56:29.402Z,2.08
2017-12-10T09:58:55.842Z,1.70
2017-12-10T10:01:22.572Z,2.10
2017-12-10T10:03:48.817Z,1.83
2017-12-10T10:06:15.157Z,2.03
2017-12-10T10:08:41.704Z,2.62
2017-12-10T10:11:08.011Z,1.85
2017-12-10T10:13:34.482Z,1.48
2017-12-10T10:16:00.773Z,2.80
2017-12-10T10:18:27.061Z,2.10
2017-12-10T10:20:53.307Z,1.50
2017-12-10T10:23:19.421Z,2.33
2017-12-10T10:25:45.764Z,2.20
2017-12-10T10:28:12.059Z,1.83
2017-12-10T10:30:38.734Z,1.70
2017-12-10T10:33:04.898Z,2.83
2017-12-10T10:35:31.013Z,1.70
2017-12-10T10:37:58.398Z,1.35
2017-12-10T10:40:24.710Z,1.75
2017-12-10T10:42:50.967Z,1.52
2017-12-10T10:45:17.308Z,1.67
2017-12-10T10:47:43.550Z,2.00
2017-12-10T10:50:10.011Z,1.60
2017-12-10T10:52:36.283Z,1.52
2017-12-10T10:55:02.471Z,1.42
2017-12-10T10:57:28.665Z,1.35
2017-12-10T10:59:54.815Z,1.60
2017-12-10T11:02:21.036Z,1.90
2017-12-10T11:04:47.259Z,1.77
2017-12-10T11:07:13.418Z,1.60
2017-12-10T11:09:39.675Z,1.23
2017-12-10T11:12:05.797Z,1.40
2017-12-10T11:14:32.915Z,1.63
2017-12-10T11:16:59.438Z,1.55
2017-12-10T11:19:25.867Z,1.55
2017-12-10T11:21:52.282Z,1.27
2017-12-10T11:24:18.773Z,1.73
2017-12-10T11:26:45.051Z,1.83
2017-12-10T11:29:11.514Z,1.70
2017-12-10T11:31:38.129Z,1.55
2017-12-10T11:34:04.591Z,1.60
2017-12-10T11:36:31.030Z,1.90
2017-12-10T11:38:57.786Z,1.65
2017-12-10T11:41:24.449Z,1.90
2017-12-10T11:43:50.850Z,1.70
2017-12-10T11:46:17.626Z,1.30
2017-12-10T11:48:44.801Z,1.55
2017-12-10T11:51:11.054Z,1.60
2017-12-10T11:53:37.116Z,1.45
2017-12-10T11:56:03.522Z,1.30
2017-12-10T11:58:30.080Z,1.50
2017-12-10T12:00:57.479Z,2.20
2017-12-10T12:03:24.154Z,1.42
2017-12-10T12:05:50.324Z,2.65
2017-12-10T12:08:16.507Z,3.03
2017-12-10T12:10:43.091Z,3.22
2017-12-10T12:13:09.505Z,2.40
2017-12-10T12:15:35.982Z,2.08
2017-12-10T12:18:03.372Z,2.22
2017-12-10T12:20:29.953Z,2.17
2017-12-10T12:22:56.389Z,1.92
2017-12-10T12:25:23.066Z,2.72
2017-12-10T12:27:49.294Z,2.10
2017-12-10T12:30:15.472Z,2.58
2017-12-10T12:32:41.521Z,2.87
2017-12-10T12:35:08.451Z,2.55
2017-12-10T12:37:34.604Z,2.42
2017-12-10T12:40:01.033Z,2.70
2017-12-10T12:42:27.303Z,2.12
2017-12-10T12:44:53.561Z,3.47
2017-12-10T12:47:19.807Z,2.22
2017-12-10T12:49:46.285Z,2.05
2017-12-10T12:52:12.456Z,3.25
2017-12-10T12:54:39.295Z,2.72
2017-12-10T12:57:05.671Z,2.45
2017-12-10T12:59:31.956Z,1.90
2017-12-10T13:01:58.164Z,2.47
2017-12-10T13:04:24.403Z,2.30
2017-12-10T13:06:50.625Z,1.90
2017-12-10T13:09:16.677Z,3.42
2017-12-10T13:11:43.262Z,1.33
2017-12-10T13:14:09.393Z,0.70
2017-12-10T13:16:35.578Z,0.80
2017-12-10T13:19:01.708Z,0.85
2017-12-10T13:21:28.372Z,0.80
2017-12-10T13:23:55.086Z,1.50
2017-12-10T13:26:21.414Z,1.00
2017-12-10T13:28:47.733Z,0.82
2017-12-10T13:31:14.038Z,0.90
2017-12-10T13:33:40.518Z,1.15
2017-12-10T13:36:06.708Z,0.90
2017-12-10T13:38:32.802Z,0.70
2017-12-10T13:40:58.940Z,0.88
2017-12-10T13:43:25.128Z,0.90
2017-12-10T13:45:51.282Z,0.93
2017-12-10T13:48:17.434Z,0.80
2017-12-10T13:50:43.553Z,0.82
2017-12-10T13:53:10.252Z,0.70
2017-12-10T13:55:36.772Z,0.75
2017-12-10T13:58:03.178Z,0.90
2017-12-10T14:00:29.647Z,0.90
2017-12-10T14:02:56.232Z,0.80
2017-12-10T14:05:22.575Z,0.80
2017-12-10T14:07:48.884Z,0.75
2017-12-10T14:10:15.043Z,0.70
2017-12-10T14:12:42.245Z,0.80
2017-12-10T14:15:08.331Z,0.80
2017-12-10T14:17:34.693Z,0.90
2017-12-10T14:20:00.931Z,0.80
2017-12-10T14:22:28.146Z,0.95
2017-12-10T14:24:54.287Z,0.70
2017-12-10T14:27:20.495Z,0.70
2017-12-10T14:29:46.637Z,0.80
2017-12-10T14:32:12.822Z,0.70
2017-12-10T14:34:38.946Z,0.90
2017-12-10T14:37:05.107Z,0.73
2017-12-10T14:39:31.324Z,0.93
2017-12-10T14:41:57.458Z,0.60
2017-12-10T14:44:23.623Z,0.80
2017-12-10T14:46:49.904Z,0.60
2017-12-10T14:49:15.954Z,0.70
2017-12-10T14:51:42.063Z,0.60
2017-12-10T14:54:08.348Z,0.70
2017-12-10T14:56:34.456Z,0.80
2017-12-10T14:59:00.694Z,0.70
2017-12-10T15:01:26.910Z,0.60
2017-12-10T15:03:53.132Z,0.70
2017-12-10T15:06:19.334Z,0.70
2017-12-10T15:08:45.666Z,0.77
2017-12-10T15:11:11.788Z,0.70
2017-12-10T15:13:37.904Z,1.20
2017-12-10T15:16:04.098Z,0.90
2017-12-10T15:18:30.265Z,0.70
2017-12-10T15:20:56.333Z,0.87
2017-12-10T15:23:23.007Z,0.70
2017-12-10T15:25:49.187Z,0.70
2017-12-10T15:28:15.336Z,0.70
2017-12-10T15:30:41.507Z,0.70
2017-12-10T15:33:07.675Z,0.70
2017-12-10T15:35:33.952Z,0.60
2017-12-10T15:38:00.199Z,0.93
2017-12-10T15:40:26.373Z,0.70
2017-12-10T15:42:52.414Z,0.77
2017-12-10T15:45:18.635Z,0.80
2017-12-10T15:47:44.865Z,0.80
2017-12-10T15:50:11.025Z,0.70
2017-12-10T15:52:37.260Z,0.70
2017-12-10T15:55:03.519Z,0.70
2017-12-10T15:57:29.764Z,1.40
2017-12-10T15:59:55.922Z,0.80
2017-12-10T16:02:22.018Z,0.80
2017-12-10T16:04:48.208Z,0.60
2017-12-10T16:07:14.326Z,0.70
2017-12-10T16:09:40.472Z,0.80
2017-12-10T16:12:06.651Z,0.80
2017-12-10T16:14:32.837Z,0.90
2017-12-10T16:16:59.071Z,0.70
2017-12-10T16:19:25.102Z,0.70
2017-12-10T16:21:51.152Z,0.50
2017-12-10T16:24:17.308Z,0.70
2017-12-10T16:26:43.432Z,0.67
2017-12-10T16:29:09.524Z,0.90
2017-12-10T16:31:35.607Z,0.77
2017-12-10T16:34:01.828Z,0.63
2017-12-10T16:36:27.954Z,0.70
2017-12-10T16:38:54.110Z,0.80
2017-12-10T16:41:20.267Z,0.90
2017-12-10T16:43:46.334Z,0.67
2017-12-10T16:46:12.758Z,0.70
2017-12-10T16:48:38.927Z,0.70
2017-12-10T16:51:05.180Z,0.80
2017-12-10T16:53:31.489Z,0.80
2017-12-10T16:55:57.571Z,0.80
2017-12-10T16:58:23.758Z,0.70
2017-12-10T17:00:51.580Z,0.60
2017-12-10T17:03:17.872Z,0.80
2017-12-10T17:05:44.021Z,0.80
2017-12-10T17:08:10.108Z,0.80
2017-12-10T17:10:36.393Z,0.80
2017-12-10T17:13:02.835Z,0.70
2017-12-10T17:15:28.965Z,0.80
2017-12-10T17:17:55.270Z,0.70
2017-12-10T17:20:21.406Z,0.70
2017-12-10T17:22:47.551Z,0.83
2017-12-10T17:25:13.915Z,0.80
2017-12-10T17:27:40.231Z,0.90
2017-12-10T17:30:07.132Z,0.90
2017-12-10T17:32:33.357Z,0.90
2017-12-10T17:34:59.521Z,0.90
2017-12-10T17:37:25.745Z,0.70
2017-12-10T17:39:51.849Z,0.80
2017-12-10T17:42:18.033Z,0.70
2017-12-10T17:44:44.117Z,0.73
2017-12-10T17:47:10.241Z,0.60
2017-12-10T17:49:36.398Z,0.70
2017-12-10T17:52:02.457Z,0.67
2017-12-10T17:54:28.602Z,0.80
2017-12-10T17:56:54.712Z,0.77
2017-12-10T17:59:20.903Z,0.70
2017-12-10T18:01:47.060Z,0.80
2017-12-10T18:04:13.421Z,0.70
2017-12-10T18:06:39.834Z,0.93
2017-12-10T18:09:06.093Z,0.80
2017-12-10T18:11:32.169Z,0.90
2017-12-10T18:13:58.375Z,1.20
2017-12-10T18:16:24.554Z,1.07
2017-12-10T18:18:50.712Z,1.00
2017-12-10T18:21:16.898Z,0.90
2017-12-10T18:23:42.957Z,0.90
2017-12-10T18:26:09.228Z,1.00
2017-12-10T18:28:35.585Z,1.03
2017-12-10T18:31:02.548Z,1.10
2017-12-10T18:33:28.747Z,1.07
2017-12-10T18:35:54.832Z,1.00
2017-12-10T18:38:20.990Z,0.90
2017-12-10T18:40:47.091Z,0.80
2017-12-10T18:43:13.245Z,0.93
2017-12-10T18:45:40.469Z,0.70
2017-12-10T18:48:06.556Z,1.00
2017-12-10T18:50:32.672Z,0.87
2017-12-10T18:52:58.787Z,0.83
2017-12-10T18:55:26.777Z,1.23
2017-12-10T18:57:52.892Z,0.80
2017-12-10T19:00:19.073Z,0.87
2017-12-10T19:02:45.210Z,0.83
2017-12-10T19:05:11.242Z,1.30
2017-12-10T19:07:37.293Z,1.13
2017-12-10T19:10:03.480Z,1.20
2017-12-10T19:12:29.564Z,1.00
2017-12-10T19:14:56.375Z,1.00
2017-12-10T19:17:22.893Z,1.10
2017-12-10T19:19:49.709Z,1.50
2017-12-10T19:22:16.071Z,1.43
2017-12-10T19:24:42.306Z,1.40
2017-12-10T19:27:08.642Z,1.13
2017-12-10T19:29:35.151Z,1.57
2017-12-10T19:32:01.608Z,1.47
2017-12-10T19:34:27.794Z,1.37
2017-12-10T19:36:54.259Z,1.83
2017-12-10T19:39:20.695Z,1.40
2017-12-10T19:41:47.237Z,1.40
2017-12-10T19:44:13.739Z,1.30
2017-12-10T19:46:40.275Z,1.60
2017-12-10T19:49:06.433Z,1.90
2017-12-10T19:51:32.802Z,1.60
2017-12-10T19:53:59.276Z,1.65
2017-12-10T19:56:25.989Z,1.60
2017-12-10T19:58:52.378Z,2.00
2017-12-10T20:01:18.711Z,1.65
2017-12-10T20:03:45.303Z,1.75
2017-12-10T20:06:11.576Z,1.73
2017-12-10T20:08:37.904Z,1.85
2017-12-10T20:11:05.433Z,1.73
2017-12-10T20:13:31.942Z,1.50
2017-12-10T20:15:58.334Z,1.90
2017-12-10T20:18:24.744Z,1.95
2017-12-10T20:20:51.080Z,1.80
2017-12-10T20:23:17.221Z,2.17
2017-12-10T20:25:43.438Z,1.70
2017-12-10T20:28:09.635Z,1.60
2017-12-10T20:30:36.202Z,2.22
2017-12-10T20:33:02.760Z,1.80
2017-12-10T20:35:29.054Z,1.70
2017-12-10T20:37:55.481Z,1.67
2017-12-10T20:40:21.700Z,1.48
2017-12-10T20:42:48.038Z,1.40
2017-12-10T20:45:14.495Z,1.30
2017-12-10T20:47:41.521Z,1.70
2017-12-10T20:50:07.652Z,1.40
2017-12-10T20:52:34.493Z,1.83
2017-12-10T20:55:00.701Z,1.40
2017-12-10T20:57:27.266Z,1.40
2017-12-10T20:59:53.471Z,1.20
2017-12-10T21:02:19.731Z,1.50
2017-12-10T21:04:46.054Z,1.30
2017-12-10T21:07:12.400Z,1.30
2017-12-10T21:09:38.660Z,1.55
2017-12-10T21:12:05.007Z,1.30
2017-12-10T21:14:31.476Z,1.40
2017-12-10T21:16:57.905Z,1.40
2017-12-10T21:19:24.038Z,1.80
2017-12-10T21:21:50.215Z,1.52
2017-12-10T21:24:16.667Z,1.60
2017-12-10T21:26:43.144Z,1.20
2017-12-10T21:29:09.367Z,1.70
2017-12-10T21:31:35.781Z,1.45
2017-12-10T21:34:02.109Z,1.60
2017-12-10T21:36:28.365Z,2.00
2017-12-10T21:38:55.422Z,1.35
2017-12-10T21:41:21.760Z,1.65
2017-12-10T21:43:48.069Z,1.60
2017-12-10T21:46:14.404Z,1.55
2017-12-10T21:48:40.871Z,1.48
2017-12-10T21:51:07.695Z,1.50
2017-12-10T21:53:33.980Z,1.60
2017-12-10T21:56:00.414Z,2.37
2017-12-10T21:58:27.398Z,1.50
2017-12-10T22:00:54.130Z,1.50
2017-12-10T22:03:20.547Z,1.52
2017-12-10T22:05:46.764Z,1.67
2017-12-10T22:08:13.080Z,2.22
2017-12-10T22:10:39.635Z,2.80
2017-12-10T22:13:06.157Z,2.40
2017-12-10T22:15:32.165Z,2.10
2017-12-10T22:17:58.367Z,1.70
2017-12-10T22:20:24.556Z,1.85
2017-12-10T22:22:50.783Z,2.15
2017-12-10T22:25:16.995Z,2.40
2017-12-10T22:27:43.209Z,1.52
2017-12-10T22:30:09.550Z,1.80
2017-12-10T22:32:35.819Z,1.45
2017-12-10T22:35:02.234Z,1.58
2017-12-10T22:37:28.368Z,1.80
2017-12-10T22:39:54.870Z,1.92
2017-12-10T22:42:21.223Z,1.95
2017-12-10T22:44:47.519Z,1.90
2017-12-10T22:47:14.022Z,1.87
2017-12-10T22:49:40.220Z,2.40
2017-12-10T22:52:06.419Z,2.00
2017-12-10T22:54:32.786Z,2.35
2017-12-10T22:56:59.186Z,1.70
2017-12-10T22:59:25.692Z,1.75
2017-12-10T23:01:52.208Z,1.95
2017-12-10T23:04:18.339Z,2.00
2017-12-10T23:06:44.707Z,2.10
2017-12-10T23:09:11.121Z,2.03
2017-12-10T23:11:37.522Z,1.92
2017-12-10T23:14:04.634Z,2.10
2017-12-10T23:16:30.893Z,1.80
2017-12-10T23:18:57.150Z,1.70
2017-12-10T23:21:23.397Z,1.70
2017-12-10T23:23:49.613Z,1.60
2017-12-10T23:26:15.689Z,1.80
2017-12-10T23:28:41.763Z,1.50
2017-12-10T23:31:07.878Z,1.50
2017-12-10T23:33:34.145Z,1.90
2017-12-10T23:36:00.521Z,1.62
2017-12-10T23:38:26.797Z,1.95
2017-12-10T23:40:52.937Z,1.80
2017-12-10T23:43:19.239Z,1.83
2017-12-10T23:45:45.468Z,1.77
2017-12-10T23:48:11.689Z,1.30
2017-12-10T23:50:37.927Z,2.15
2017-12-10T23:53:04.038Z,1.50
2017-12-10T23:55:30.337Z,1.17
2017-12-10T23:57:56.734Z,1.37
